sensor_id;sensor_type;location;lat;lon;timestamp;temperature;humidity
62862;DHT22;48953;53.110;5.592;2022-10-16T00:00:34;11.80;99.90
62862;DHT22;48953;53.110;5.592;2022-10-16T00:03:00;11.70;99.90
62862;DHT22;48953;53.110;5.592;2022-10-16T00:05:25;11.70;99.90
62862;DHT22;48953;53.110;5.592;2022-10-16T00:07:51;11.60;99.90
62862;DHT22;48953;53.110;5.592;2022-10-16T00:10:16;11.70;99.90
62862;DHT22;48953;53.110;5.592;2022-10-16T00:12:42;11.70;99.90
62862;DHT22;48953;53.110;5.592;2022-10-16T00:15:08;11.70;99.90
62862;DHT22;48953;53.110;5.592;2022-10-16T00:17:34;11.80;99.90
62862;DHT22;48953;53.110;5.592;2022-10-16T00:19:59;12.00;99.90
62862;DHT22;48953;53.110;5.592;2022-10-16T00:22:25;12.00;99.90
62862;DHT22;48953;53.110;5.592;2022-10-16T00:24:51;11.90;99.90
62862;DHT22;48953;53.110;5.592;2022-10-16T00:27:17;11.90;99.90
62862;DHT22;48953;53.110;5.592;2022-10-16T00:29:43;11.80;99.90
62862;DHT22;48953;53.110;5.592;2022-10-16T00:32:08;11.80;99.90
62862;DHT22;48953;53.110;5.592;2022-10-16T00:34:34;11.70;99.90
62862;DHT22;48953;53.110;5.592;2022-10-16T00:37:00;11.70;99.90
62862;DHT22;48953;53.110;5.592;2022-10-16T00:42:32;11.80;99.90
62862;DHT22;48953;53.110;5.592;2022-10-16T00:44:58;11.80;99.90
62862;DHT22;48953;53.110;5.592;2022-10-16T00:47:39;11.80;99.90
62862;DHT22;48953;53.110;5.592;2022-10-16T00:52:39;12.00;99.90
62862;DHT22;48953;53.110;5.592;2022-10-16T00:55:08;12.30;99.90
62862;DHT22;48953;53.110;5.592;2022-10-16T00:57:34;12.30;99.90
62862;DHT22;48953;53.110;5.592;2022-10-16T01:00:01;12.40;99.90
62862;DHT22;48953;53.110;5.592;2022-10-16T01:06:19;12.40;99.90
62862;DHT22;48953;53.110;5.592;2022-10-16T01:08:56;12.40;99.90
62862;DHT22;48953;53.110;5.592;2022-10-16T01:12:08;12.50;99.90
62862;DHT22;48953;53.110;5.592;2022-10-16T01:14:45;12.60;99.90
62862;DHT22;48953;53.110;5.592;2022-10-16T01:17:18;12.60;99.90
62862;DHT22;48953;53.110;5.592;2022-10-16T01:22:48;12.60;99.90
62862;DHT22;48953;53.110;5.592;2022-10-16T01:28:19;12.60;99.90
62862;DHT22;48953;53.110;5.592;2022-10-16T01:30:47;12.70;99.90
62862;DHT22;48953;53.110;5.592;2022-10-16T01:33:21;12.60;99.90
62862;DHT22;48953;53.110;5.592;2022-10-16T01:35:53;12.70;99.90
62862;DHT22;48953;53.110;5.592;2022-10-16T01:38:29;12.70;99.90
62862;DHT22;48953;53.110;5.592;2022-10-16T01:41:04;12.70;99.90
62862;DHT22;48953;53.110;5.592;2022-10-16T01:43:36;12.60;99.90
62862;DHT22;48953;53.110;5.592;2022-10-16T01:46:03;12.60;99.90
62862;DHT22;48953;53.110;5.592;2022-10-16T01:48:29;12.60;99.90
62862;DHT22;48953;53.110;5.592;2022-10-16T01:51:06;12.60;99.90
62862;DHT22;48953;53.110;5.592;2022-10-16T01:53:34;12.60;99.90
62862;DHT22;48953;53.110;5.592;2022-10-16T01:56:03;12.60;99.90
62862;DHT22;48953;53.110;5.592;2022-10-16T01:58:34;12.50;99.90
62862;DHT22;48953;53.110;5.592;2022-10-16T02:01:02;12.50;99.90
62862;DHT22;48953;53.110;5.592;2022-10-16T02:03:29;12.50;99.90
62862;DHT22;48953;53.110;5.592;2022-10-16T02:05:56;12.50;99.90
62862;DHT22;48953;53.110;5.592;2022-10-16T02:08:24;12.50;99.90
62862;DHT22;48953;53.110;5.592;2022-10-16T02:10:55;12.50;99.90
62862;DHT22;48953;53.110;5.592;2022-10-16T02:13:56;12.50;99.90
62862;DHT22;48953;53.110;5.592;2022-10-16T02:16:39;12.50;99.90
62862;DHT22;48953;53.110;5.592;2022-10-16T02:19:06;12.40;99.90
62862;DHT22;48953;53.110;5.592;2022-10-16T02:24:30;12.30;99.90
62862;DHT22;48953;53.110;5.592;2022-10-16T02:27:11;12.20;99.90
62862;DHT22;48953;53.110;5.592;2022-10-16T02:29:42;12.10;99.90
62862;DHT22;48953;53.110;5.592;2022-10-16T02:32:17;12.10;99.90
62862;DHT22;48953;53.110;5.592;2022-10-16T02:34:45;11.90;99.90
62862;DHT22;48953;53.110;5.592;2022-10-16T02:37:12;11.80;99.90
62862;DHT22;48953;53.110;5.592;2022-10-16T02:39:39;11.80;99.90
62862;DHT22;48953;53.110;5.592;2022-10-16T02:42:11;11.80;99.90
62862;DHT22;48953;53.110;5.592;2022-10-16T02:44:36;11.80;99.90
62862;DHT22;48953;53.110;5.592;2022-10-16T02:47:02;11.70;99.90
62862;DHT22;48953;53.110;5.592;2022-10-16T02:49:28;11.60;99.90
62862;DHT22;48953;53.110;5.592;2022-10-16T02:51:53;11.50;99.90
62862;DHT22;48953;53.110;5.592;2022-10-16T02:54:19;11.30;99.90
62862;DHT22;48953;53.110;5.592;2022-10-16T02:56:44;11.20;99.90
62862;DHT22;48953;53.110;5.592;2022-10-16T02:59:10;11.20;99.90
62862;DHT22;48953;53.110;5.592;2022-10-16T03:01:35;11.20;99.90
62862;DHT22;48953;53.110;5.592;2022-10-16T03:04:01;11.40;99.90
62862;DHT22;48953;53.110;5.592;2022-10-16T03:06:26;11.20;99.90
62862;DHT22;48953;53.110;5.592;2022-10-16T03:08:52;11.10;99.90
62862;DHT22;48953;53.110;5.592;2022-10-16T03:11:18;11.10;99.90
62862;DHT22;48953;53.110;5.592;2022-10-16T03:13:43;11.00;99.90
62862;DHT22;48953;53.110;5.592;2022-10-16T03:16:09;11.00;99.90
62862;DHT22;48953;53.110;5.592;2022-10-16T03:18:34;11.00;99.90
62862;DHT22;48953;53.110;5.592;2022-10-16T03:21:00;11.10;99.90
62862;DHT22;48953;53.110;5.592;2022-10-16T03:23:25;11.20;99.90
62862;DHT22;48953;53.110;5.592;2022-10-16T03:25:51;11.30;99.90
62862;DHT22;48953;53.110;5.592;2022-10-16T03:28:17;11.30;99.90
62862;DHT22;48953;53.110;5.592;2022-10-16T03:30:43;11.30;99.90
62862;DHT22;48953;53.110;5.592;2022-10-16T03:33:09;11.40;99.90
62862;DHT22;48953;53.110;5.592;2022-10-16T03:35:34;11.40;99.90
62862;DHT22;48953;53.110;5.592;2022-10-16T03:38:00;11.50;99.90
62862;DHT22;48953;53.110;5.592;2022-10-16T03:40:26;11.60;99.90
62862;DHT22;48953;53.110;5.592;2022-10-16T03:42:52;11.80;99.90
62862;DHT22;48953;53.110;5.592;2022-10-16T03:45:20;11.80;99.90
62862;DHT22;48953;53.110;5.592;2022-10-16T03:47:46;11.80;99.90
62862;DHT22;48953;53.110;5.592;2022-10-16T03:50:12;11.90;99.90
62862;DHT22;48953;53.110;5.592;2022-10-16T03:52:38;12.00;99.90
62862;DHT22;48953;53.110;5.592;2022-10-16T03:55:04;12.00;99.90
62862;DHT22;48953;53.110;5.592;2022-10-16T03:57:29;12.00;99.90
62862;DHT22;48953;53.110;5.592;2022-10-16T03:59:55;12.10;99.90
62862;DHT22;48953;53.110;5.592;2022-10-16T04:02:20;12.10;99.90
62862;DHT22;48953;53.110;5.592;2022-10-16T04:04:46;12.10;99.90
62862;DHT22;48953;53.110;5.592;2022-10-16T04:07:11;12.10;99.90
62862;DHT22;48953;53.110;5.592;2022-10-16T04:09:37;12.10;99.90
62862;DHT22;48953;53.110;5.592;2022-10-16T04:12:03;12.10;99.90
62862;DHT22;48953;53.110;5.592;2022-10-16T04:14:28;12.10;99.90
62862;DHT22;48953;53.110;5.592;2022-10-16T04:16:54;12.10;99.90
62862;DHT22;48953;53.110;5.592;2022-10-16T04:19:19;12.20;99.90
62862;DHT22;48953;53.110;5.592;2022-10-16T04:21:45;12.20;99.90
62862;DHT22;48953;53.110;5.592;2022-10-16T04:27:27;12.20;99.90
62862;DHT22;48953;53.110;5.592;2022-10-16T04:29:53;12.20;99.90
62862;DHT22;48953;53.110;5.592;2022-10-16T04:32:19;12.20;99.90
62862;DHT22;48953;53.110;5.592;2022-10-16T04:34:44;12.30;99.90
62862;DHT22;48953;53.110;5.592;2022-10-16T04:37:10;12.10;99.90
62862;DHT22;48953;53.110;5.592;2022-10-16T04:39:36;12.10;99.90
62862;DHT22;48953;53.110;5.592;2022-10-16T04:42:01;12.10;99.90
62862;DHT22;48953;53.110;5.592;2022-10-16T04:44:27;12.10;99.90
62862;DHT22;48953;53.110;5.592;2022-10-16T04:46:53;12.10;99.90
62862;DHT22;48953;53.110;5.592;2022-10-16T04:49:19;12.00;99.90
62862;DHT22;48953;53.110;5.592;2022-10-16T04:51:44;12.00;99.90
62862;DHT22;48953;53.110;5.592;2022-10-16T04:54:10;12.10;99.90
62862;DHT22;48953;53.110;5.592;2022-10-16T04:56:35;12.10;99.90
62862;DHT22;48953;53.110;5.592;2022-10-16T04:59:08;12.10;99.90
62862;DHT22;48953;53.110;5.592;2022-10-16T05:01:34;12.10;99.90
62862;DHT22;48953;53.110;5.592;2022-10-16T05:04:00;12.00;99.90
62862;DHT22;48953;53.110;5.592;2022-10-16T05:06:26;12.00;99.90
62862;DHT22;48953;53.110;5.592;2022-10-16T05:08:51;12.00;99.90
62862;DHT22;48953;53.110;5.592;2022-10-16T05:11:17;12.00;99.90
62862;DHT22;48953;53.110;5.592;2022-10-16T05:13:42;12.00;99.90
62862;DHT22;48953;53.110;5.592;2022-10-16T05:16:08;11.90;99.90
62862;DHT22;48953;53.110;5.592;2022-10-16T05:18:33;11.80;99.90
62862;DHT22;48953;53.110;5.592;2022-10-16T05:27:28;11.50;99.90
62862;DHT22;48953;53.110;5.592;2022-10-16T05:29:53;11.40;99.90
62862;DHT22;48953;53.110;5.592;2022-10-16T05:32:19;11.40;99.90
62862;DHT22;48953;53.110;5.592;2022-10-16T05:34:45;11.30;99.90
62862;DHT22;48953;53.110;5.592;2022-10-16T05:37:11;11.30;99.90
62862;DHT22;48953;53.110;5.592;2022-10-16T05:39:38;11.40;99.90
62862;DHT22;48953;53.110;5.592;2022-10-16T05:42:04;11.40;99.90
62862;DHT22;48953;53.110;5.592;2022-10-16T05:44:30;11.60;99.90
62862;DHT22;48953;53.110;5.592;2022-10-16T05:46:56;11.70;99.90
62862;DHT22;48953;53.110;5.592;2022-10-16T05:49:22;11.70;99.90
62862;DHT22;48953;53.110;5.592;2022-10-16T05:51:48;11.70;99.90
62862;DHT22;48953;53.110;5.592;2022-10-16T05:54:13;11.60;99.90
62862;DHT22;48953;53.110;5.592;2022-10-16T05:56:39;11.60;99.90
62862;DHT22;48953;53.110;5.592;2022-10-16T05:59:04;11.60;99.90
62862;DHT22;48953;53.110;5.592;2022-10-16T06:01:30;11.70;99.90
62862;DHT22;48953;53.110;5.592;2022-10-16T06:03:56;11.70;99.90
62862;DHT22;48953;53.110;5.592;2022-10-16T06:06:24;11.70;99.90
62862;DHT22;48953;53.110;5.592;2022-10-16T06:08:51;11.60;99.90
62862;DHT22;48953;53.110;5.592;2022-10-16T06:11:20;11.60;99.90
62862;DHT22;48953;53.110;5.592;2022-10-16T06:13:53;11.50;99.90
62862;DHT22;48953;53.110;5.592;2022-10-16T06:16:19;11.50;99.90
62862;DHT22;48953;53.110;5.592;2022-10-16T06:18:45;11.60;99.90
62862;DHT22;48953;53.110;5.592;2022-10-16T06:21:23;11.50;99.90
62862;DHT22;48953;53.110;5.592;2022-10-16T06:23:50;11.60;99.90
62862;DHT22;48953;53.110;5.592;2022-10-16T06:26:19;11.70;99.90
62862;DHT22;48953;53.110;5.592;2022-10-16T06:28:45;11.90;99.90
62862;DHT22;48953;53.110;5.592;2022-10-16T06:31:11;11.90;99.90
62862;DHT22;48953;53.110;5.592;2022-10-16T06:33:37;12.00;99.90
62862;DHT22;48953;53.110;5.592;2022-10-16T06:36:12;11.90;99.90
62862;DHT22;48953;53.110;5.592;2022-10-16T06:38:38;11.80;99.90
62862;DHT22;48953;53.110;5.592;2022-10-16T06:41:05;11.80;99.90
62862;DHT22;48953;53.110;5.592;2022-10-16T06:43:32;11.80;99.90
62862;DHT22;48953;53.110;5.592;2022-10-16T06:45:59;11.80;99.90
62862;DHT22;48953;53.110;5.592;2022-10-16T06:48:25;11.70;99.90
62862;DHT22;48953;53.110;5.592;2022-10-16T06:51:01;11.90;99.90
62862;DHT22;48953;53.110;5.592;2022-10-16T06:53:29;11.90;99.90
62862;DHT22;48953;53.110;5.592;2022-10-16T06:55:55;11.90;99.90
62862;DHT22;48953;53.110;5.592;2022-10-16T06:58:21;11.80;99.90
62862;DHT22;48953;53.110;5.592;2022-10-16T07:00:47;11.80;99.90
62862;DHT22;48953;53.110;5.592;2022-10-16T07:03:13;11.90;99.90
62862;DHT22;48953;53.110;5.592;2022-10-16T07:05:39;11.80;99.90
62862;DHT22;48953;53.110;5.592;2022-10-16T07:08:05;11.80;99.90
62862;DHT22;48953;53.110;5.592;2022-10-16T07:10:31;11.80;99.90
62862;DHT22;48953;53.110;5.592;2022-10-16T07:12:57;11.80;99.90
62862;DHT22;48953;53.110;5.592;2022-10-16T07:15:24;11.90;99.90
62862;DHT22;48953;53.110;5.592;2022-10-16T07:17:50;12.70;99.90
62862;DHT22;48953;53.110;5.592;2022-10-16T07:20:15;13.20;99.90
62862;DHT22;48953;53.110;5.592;2022-10-16T07:22:41;13.20;99.90
62862;DHT22;48953;53.110;5.592;2022-10-16T07:25:07;13.60;99.90
62862;DHT22;48953;53.110;5.592;2022-10-16T07:27:32;13.30;99.90
62862;DHT22;48953;53.110;5.592;2022-10-16T07:29:58;13.00;99.90
62862;DHT22;48953;53.110;5.592;2022-10-16T07:32:23;13.10;99.90
62862;DHT22;48953;53.110;5.592;2022-10-16T07:34:51;13.30;99.90
62862;DHT22;48953;53.110;5.592;2022-10-16T07:37:16;13.40;99.90
62862;DHT22;48953;53.110;5.592;2022-10-16T07:39:42;13.40;99.90
62862;DHT22;48953;53.110;5.592;2022-10-16T07:42:08;13.30;99.90
62862;DHT22;48953;53.110;5.592;2022-10-16T07:44:33;13.50;99.90
62862;DHT22;48953;53.110;5.592;2022-10-16T07:46:59;13.70;99.90
62862;DHT22;48953;53.110;5.592;2022-10-16T07:49:24;13.70;99.90
62862;DHT22;48953;53.110;5.592;2022-10-16T07:51:50;13.60;99.90
62862;DHT22;48953;53.110;5.592;2022-10-16T07:54:15;13.60;99.90
62862;DHT22;48953;53.110;5.592;2022-10-16T07:56:41;13.60;99.90
62862;DHT22;48953;53.110;5.592;2022-10-16T07:59:07;13.50;99.90
62862;DHT22;48953;53.110;5.592;2022-10-16T08:01:32;13.60;99.90
62862;DHT22;48953;53.110;5.592;2022-10-16T08:03:58;13.50;99.90
62862;DHT22;48953;53.110;5.592;2022-10-16T08:06:23;13.50;99.90
62862;DHT22;48953;53.110;5.592;2022-10-16T08:08:49;13.50;99.90
62862;DHT22;48953;53.110;5.592;2022-10-16T08:11:15;13.70;99.90
62862;DHT22;48953;53.110;5.592;2022-10-16T08:13:41;13.70;99.90
62862;DHT22;48953;53.110;5.592;2022-10-16T08:16:07;13.60;99.90
62862;DHT22;48953;53.110;5.592;2022-10-16T08:18:38;13.50;99.90
62862;DHT22;48953;53.110;5.592;2022-10-16T08:21:04;13.90;99.90
62862;DHT22;48953;53.110;5.592;2022-10-16T08:23:30;15.50;99.90
62862;DHT22;48953;53.110;5.592;2022-10-16T08:26:01;22.20;62.70
62862;DHT22;48953;53.110;5.592;2022-10-16T08:28:27;25.40;23.10
62862;DHT22;48953;53.110;5.592;2022-10-16T08:30:52;27.60;9.30
62862;DHT22;48953;53.110;5.592;2022-10-16T08:33:18;27.00;1.00
62862;DHT22;48953;53.110;5.592;2022-10-16T08:35:51;26.90;1.00
62862;DHT22;48953;53.110;5.592;2022-10-16T08:38:16;26.30;1.00
62862;DHT22;48953;53.110;5.592;2022-10-16T08:40:42;23.20;1.00
62862;DHT22;48953;53.110;5.592;2022-10-16T08:48:49;30.30;1.00
62862;DHT22;48953;53.110;5.592;2022-10-16T08:51:22;30.60;1.00
62862;DHT22;48953;53.110;5.592;2022-10-16T08:53:55;31.50;1.00
62862;DHT22;48953;53.110;5.592;2022-10-16T08:56:22;31.50;1.00
62862;DHT22;48953;53.110;5.592;2022-10-16T08:58:48;27.10;1.00
62862;DHT22;48953;53.110;5.592;2022-10-16T09:01:16;23.70;1.00
62862;DHT22;48953;53.110;5.592;2022-10-16T09:06:52;20.50;1.00
62862;DHT22;48953;53.110;5.592;2022-10-16T09:14:55;19.90;1.00
62862;DHT22;48953;53.110;5.592;2022-10-16T09:22:38;19.30;1.00
62862;DHT22;48953;53.110;5.592;2022-10-16T09:25:20;21.00;1.00
62862;DHT22;48953;53.110;5.592;2022-10-16T09:27:48;23.90;1.00
62862;DHT22;48953;53.110;5.592;2022-10-16T09:30:20;26.80;1.00
62862;DHT22;48953;53.110;5.592;2022-10-16T09:32:49;27.80;1.00
62862;DHT22;48953;53.110;5.592;2022-10-16T09:35:21;29.30;1.00
62862;DHT22;48953;53.110;5.592;2022-10-16T09:37:49;29.40;1.00
62862;DHT22;48953;53.110;5.592;2022-10-16T09:40:28;30.10;1.00
62862;DHT22;48953;53.110;5.592;2022-10-16T09:43:25;30.60;1.00
62862;DHT22;48953;53.110;5.592;2022-10-16T09:45:59;29.70;1.00
62862;DHT22;48953;53.110;5.592;2022-10-16T09:48:49;30.10;1.00
62862;DHT22;48953;53.110;5.592;2022-10-16T09:51:21;30.00;1.00
62862;DHT22;48953;53.110;5.592;2022-10-16T09:53:48;29.30;1.00
62862;DHT22;48953;53.110;5.592;2022-10-16T09:56:25;28.80;1.00
62862;DHT22;48953;53.110;5.592;2022-10-16T09:58:54;28.30;1.00
62862;DHT22;48953;53.110;5.592;2022-10-16T10:01:21;27.20;1.00
62862;DHT22;48953;53.110;5.592;2022-10-16T10:03:47;25.50;1.00
62862;DHT22;48953;53.110;5.592;2022-10-16T10:06:24;23.80;1.00
62862;DHT22;48953;53.110;5.592;2022-10-16T10:08:55;22.80;1.00
62862;DHT22;48953;53.110;5.592;2022-10-16T10:11:40;22.30;1.00
62862;DHT22;48953;53.110;5.592;2022-10-16T10:14:17;21.80;1.00
62862;DHT22;48953;53.110;5.592;2022-10-16T10:16:44;21.20;1.00
62862;DHT22;48953;53.110;5.592;2022-10-16T10:19:21;20.70;1.00
62862;DHT22;48953;53.110;5.592;2022-10-16T10:21:47;20.80;1.00
62862;DHT22;48953;53.110;5.592;2022-10-16T10:24:14;20.30;1.00
62862;DHT22;48953;53.110;5.592;2022-10-16T10:26:49;19.90;1.00
62862;DHT22;48953;53.110;5.592;2022-10-16T10:29:28;19.70;1.00
62862;DHT22;48953;53.110;5.592;2022-10-16T10:32:37;19.70;1.00
62862;DHT22;48953;53.110;5.592;2022-10-16T10:44:11;18.90;1.00
62862;DHT22;48953;53.110;5.592;2022-10-16T10:46:24;19.00;1.00
62862;DHT22;48953;53.110;5.592;2022-10-16T10:58:39;18.70;1.00
62862;DHT22;48953;53.110;5.592;2022-10-16T11:01:16;18.60;1.00
62862;DHT22;48953;53.110;5.592;2022-10-16T11:03:59;18.50;1.00
62862;DHT22;48953;53.110;5.592;2022-10-16T11:06:48;18.60;1.00
62862;DHT22;48953;53.110;5.592;2022-10-16T11:09:20;18.50;1.00
62862;DHT22;48953;53.110;5.592;2022-10-16T11:15:11;18.60;1.00
62862;DHT22;48953;53.110;5.592;2022-10-16T11:17:40;18.70;1.00
62862;DHT22;48953;53.110;5.592;2022-10-16T11:22:51;18.60;1.00
62862;DHT22;48953;53.110;5.592;2022-10-16T11:25:30;18.60;1.00
62862;DHT22;48953;53.110;5.592;2022-10-16T11:33:44;18.90;1.00
62862;DHT22;48953;53.110;5.592;2022-10-16T11:36:27;18.90;1.00
62862;DHT22;48953;53.110;5.592;2022-10-16T11:39:10;18.80;1.00
62862;DHT22;48953;53.110;5.592;2022-10-16T11:41:47;18.70;1.00
62862;DHT22;48953;53.110;5.592;2022-10-16T11:47:34;18.80;1.00
62862;DHT22;48953;53.110;5.592;2022-10-16T11:50:38;18.80;1.00
62862;DHT22;48953;53.110;5.592;2022-10-16T11:55:42;18.80;1.00
62862;DHT22;48953;53.110;5.592;2022-10-16T12:06:44;18.60;1.00
62862;DHT22;48953;53.110;5.592;2022-10-16T12:09:22;18.70;1.00
62862;DHT22;48953;53.110;5.592;2022-10-16T12:11:50;18.60;1.00
62862;DHT22;48953;53.110;5.592;2022-10-16T12:17:00;18.80;1.00
62862;DHT22;48953;53.110;5.592;2022-10-16T12:19:28;18.80;1.00
62862;DHT22;48953;53.110;5.592;2022-10-16T12:21:59;18.90;1.00
62862;DHT22;48953;53.110;5.592;2022-10-16T12:26:53;19.00;1.00
62862;DHT22;48953;53.110;5.592;2022-10-16T12:29:39;19.00;1.00
62862;DHT22;48953;53.110;5.592;2022-10-16T12:34:54;18.60;1.00
62862;DHT22;48953;53.110;5.592;2022-10-16T12:39:52;18.00;1.00
62862;DHT22;48953;53.110;5.592;2022-10-16T12:44:54;17.80;1.00
62862;DHT22;48953;53.110;5.592;2022-10-16T12:49:57;17.40;1.00
62862;DHT22;48953;53.110;5.592;2022-10-16T12:54:59;17.50;1.00
62862;DHT22;48953;53.110;5.592;2022-10-16T13:00:28;17.40;1.00
62862;DHT22;48953;53.110;5.592;2022-10-16T13:11:17;17.80;1.00
62862;DHT22;48953;53.110;5.592;2022-10-16T13:14:21;17.60;1.00
62862;DHT22;48953;53.110;5.592;2022-10-16T13:17:16;17.60;1.00
62862;DHT22;48953;53.110;5.592;2022-10-16T13:20:03;17.80;1.00
62862;DHT22;48953;53.110;5.592;2022-10-16T13:22:59;17.60;1.00
62862;DHT22;48953;53.110;5.592;2022-10-16T13:28:38;17.60;1.00
62862;DHT22;48953;53.110;5.592;2022-10-16T13:31:05;17.70;1.00
62862;DHT22;48953;53.110;5.592;2022-10-16T13:33:45;17.60;1.00
62862;DHT22;48953;53.110;5.592;2022-10-16T13:36:26;17.70;1.00
62862;DHT22;48953;53.110;5.592;2022-10-16T13:39:24;17.60;1.00
62862;DHT22;48953;53.110;5.592;2022-10-16T13:42:10;17.70;1.00
62862;DHT22;48953;53.110;5.592;2022-10-16T13:44:47;17.60;1.00
62862;DHT22;48953;53.110;5.592;2022-10-16T13:47:25;17.50;1.00
62862;DHT22;48953;53.110;5.592;2022-10-16T13:50:15;17.40;1.00
62862;DHT22;48953;53.110;5.592;2022-10-16T13:52:41;17.20;1.00
62862;DHT22;48953;53.110;5.592;2022-10-16T13:55:14;17.10;1.00
62862;DHT22;48953;53.110;5.592;2022-10-16T13:57:41;17.10;1.00
62862;DHT22;48953;53.110;5.592;2022-10-16T14:00:27;17.20;1.00
62862;DHT22;48953;53.110;5.592;2022-10-16T14:03:15;17.30;1.00
62862;DHT22;48953;53.110;5.592;2022-10-16T14:05:52;17.20;1.00
62862;DHT22;48953;53.110;5.592;2022-10-16T14:08:19;17.10;1.00
62862;DHT22;48953;53.110;5.592;2022-10-16T14:10:51;17.00;1.00
62862;DHT22;48953;53.110;5.592;2022-10-16T14:13:21;16.90;1.00
62862;DHT22;48953;53.110;5.592;2022-10-16T14:15:51;16.70;1.00
62862;DHT22;48953;53.110;5.592;2022-10-16T14:18:27;16.50;1.00
62862;DHT22;48953;53.110;5.592;2022-10-16T14:20:52;16.30;1.00
62862;DHT22;48953;53.110;5.592;2022-10-16T14:25:46;16.30;1.00
62862;DHT22;48953;53.110;5.592;2022-10-16T14:28:20;16.30;1.00
62862;DHT22;48953;53.110;5.592;2022-10-16T14:33:32;15.90;1.00
62862;DHT22;48953;53.110;5.592;2022-10-16T14:36:11;15.90;1.00
62862;DHT22;48953;53.110;5.592;2022-10-16T14:38:38;15.80;1.00
62862;DHT22;48953;53.110;5.592;2022-10-16T14:41:05;15.70;1.00
62862;DHT22;48953;53.110;5.592;2022-10-16T14:43:36;15.50;1.00
62862;DHT22;48953;53.110;5.592;2022-10-16T14:46:05;15.50;1.00
62862;DHT22;48953;53.110;5.592;2022-10-16T14:48:32;15.50;1.00
62862;DHT22;48953;53.110;5.592;2022-10-16T14:50:58;15.40;1.00
62862;DHT22;48953;53.110;5.592;2022-10-16T14:53:23;15.40;1.00
62862;DHT22;48953;53.110;5.592;2022-10-16T14:59:32;15.50;1.00
62862;DHT22;48953;53.110;5.592;2022-10-16T15:01:59;15.60;1.00
62862;DHT22;48953;53.110;5.592;2022-10-16T15:04:24;15.60;1.00
62862;DHT22;48953;53.110;5.592;2022-10-16T15:06:50;15.50;1.00
62862;DHT22;48953;53.110;5.592;2022-10-16T15:09:15;15.50;1.00
62862;DHT22;48953;53.110;5.592;2022-10-16T15:11:41;15.50;1.00
62862;DHT22;48953;53.110;5.592;2022-10-16T15:14:11;15.50;1.00
62862;DHT22;48953;53.110;5.592;2022-10-16T15:16:38;15.30;1.00
62862;DHT22;48953;53.110;5.592;2022-10-16T15:19:03;15.30;1.00
62862;DHT22;48953;53.110;5.592;2022-10-16T15:21:31;15.30;1.10
62862;DHT22;48953;53.110;5.592;2022-10-16T15:23:58;15.20;1.00
62862;DHT22;48953;53.110;5.592;2022-10-16T15:26:25;15.10;4.40
62862;DHT22;48953;53.110;5.592;2022-10-16T15:28:51;15.10;2.20
62862;DHT22;48953;53.110;5.592;2022-10-16T15:31:17;15.00;3.30
62862;DHT22;48953;53.110;5.592;2022-10-16T15:33:42;14.90;4.20
62862;DHT22;48953;53.110;5.592;2022-10-16T15:36:08;14.80;4.00
62862;DHT22;48953;53.110;5.592;2022-10-16T15:38:34;14.70;5.80
62862;DHT22;48953;53.110;5.592;2022-10-16T15:40:59;14.60;7.10
62862;DHT22;48953;53.110;5.592;2022-10-16T15:43:25;14.40;8.10
62862;DHT22;48953;53.110;5.592;2022-10-16T15:46:05;14.40;10.50
62862;DHT22;48953;53.110;5.592;2022-10-16T15:48:32;14.30;12.70
62862;DHT22;48953;53.110;5.592;2022-10-16T15:50:59;14.30;14.90
62862;DHT22;48953;53.110;5.592;2022-10-16T15:53:24;14.30;14.20
62862;DHT22;48953;53.110;5.592;2022-10-16T15:55:50;14.10;18.30
62862;DHT22;48953;53.110;5.592;2022-10-16T15:58:16;14.00;16.50
62862;DHT22;48953;53.110;5.592;2022-10-16T16:00:42;13.90;17.40
62862;DHT22;48953;53.110;5.592;2022-10-16T16:03:07;13.70;21.20
62862;DHT22;48953;53.110;5.592;2022-10-16T16:05:33;13.70;25.40
62862;DHT22;48953;53.110;5.592;2022-10-16T16:08:00;13.50;31.50
62862;DHT22;48953;53.110;5.592;2022-10-16T16:10:26;13.50;34.30
62862;DHT22;48953;53.110;5.592;2022-10-16T16:12:51;13.40;36.90
62862;DHT22;48953;53.110;5.592;2022-10-16T16:15:20;13.30;45.10
62862;DHT22;48953;53.110;5.592;2022-10-16T16:17:46;13.20;50.90
62862;DHT22;48953;53.110;5.592;2022-10-16T16:20:12;13.10;50.90
62862;DHT22;48953;53.110;5.592;2022-10-16T16:22:38;13.10;56.20
62862;DHT22;48953;53.110;5.592;2022-10-16T16:25:04;13.00;59.20
62862;DHT22;48953;53.110;5.592;2022-10-16T16:27:29;12.90;61.50
62862;DHT22;48953;53.110;5.592;2022-10-16T16:29:59;12.90;63.80
62862;DHT22;48953;53.110;5.592;2022-10-16T16:32:24;12.80;72.00
62862;DHT22;48953;53.110;5.592;2022-10-16T16:34:50;12.80;74.30
62862;DHT22;48953;53.110;5.592;2022-10-16T16:37:16;12.60;74.90
62862;DHT22;48953;53.110;5.592;2022-10-16T16:39:41;12.60;86.20
62862;DHT22;48953;53.110;5.592;2022-10-16T16:42:07;12.40;92.20
62862;DHT22;48953;53.110;5.592;2022-10-16T16:44:33;12.30;95.70
62862;DHT22;48953;53.110;5.592;2022-10-16T16:47:01;12.20;99.50
62862;DHT22;48953;53.110;5.592;2022-10-16T16:49:27;12.10;99.90
62862;DHT22;48953;53.110;5.592;2022-10-16T16:51:53;12.00;99.90
62862;DHT22;48953;53.110;5.592;2022-10-16T16:54:19;11.90;99.90
62862;DHT22;48953;53.110;5.592;2022-10-16T16:56:44;11.80;99.90
62862;DHT22;48953;53.110;5.592;2022-10-16T16:59:16;11.80;99.90
62862;DHT22;48953;53.110;5.592;2022-10-16T17:01:43;11.80;99.90
62862;DHT22;48953;53.110;5.592;2022-10-16T17:04:09;11.70;99.90
62862;DHT22;48953;53.110;5.592;2022-10-16T17:06:35;11.70;99.90
62862;DHT22;48953;53.110;5.592;2022-10-16T17:09:03;11.70;99.90
62862;DHT22;48953;53.110;5.592;2022-10-16T17:11:29;11.60;99.90
62862;DHT22;48953;53.110;5.592;2022-10-16T17:13:57;11.60;99.90
62862;DHT22;48953;53.110;5.592;2022-10-16T17:16:26;11.50;99.90
62862;DHT22;48953;53.110;5.592;2022-10-16T17:18:53;11.50;99.90
62862;DHT22;48953;53.110;5.592;2022-10-16T17:21:19;11.40;99.90
62862;DHT22;48953;53.110;5.592;2022-10-16T17:23:44;11.40;99.90
62862;DHT22;48953;53.110;5.592;2022-10-16T17:26:15;11.40;99.90
62862;DHT22;48953;53.110;5.592;2022-10-16T17:28:41;11.30;99.90
62862;DHT22;48953;53.110;5.592;2022-10-16T17:31:14;11.20;99.90
62862;DHT22;48953;53.110;5.592;2022-10-16T17:33:41;11.20;99.90
62862;DHT22;48953;53.110;5.592;2022-10-16T17:36:07;11.10;99.90
62862;DHT22;48953;53.110;5.592;2022-10-16T17:38:33;11.10;99.90
62862;DHT22;48953;53.110;5.592;2022-10-16T17:41:10;11.00;99.90
62862;DHT22;48953;53.110;5.592;2022-10-16T17:43:36;11.10;99.90
62862;DHT22;48953;53.110;5.592;2022-10-16T17:46:02;11.00;99.90
62862;DHT22;48953;53.110;5.592;2022-10-16T17:48:28;11.00;99.90
62862;DHT22;48953;53.110;5.592;2022-10-16T17:50:54;11.00;99.90
62862;DHT22;48953;53.110;5.592;2022-10-16T17:53:19;11.00;99.90
62862;DHT22;48953;53.110;5.592;2022-10-16T17:55:45;11.00;99.90
62862;DHT22;48953;53.110;5.592;2022-10-16T17:58:11;11.00;99.90
62862;DHT22;48953;53.110;5.592;2022-10-16T18:00:36;11.00;99.90